sensor_id;sensor_type;location;lat;lon;timestamp;temperature;humidity
1504;DHT22;743;47.076;15.494;2022-08-03T00:01:49;23.30;1.00
1504;DHT22;743;47.076;15.494;2022-08-03T00:04:17;23.30;1.00
1504;DHT22;743;47.076;15.494;2022-08-03T00:14:07;23.40;1.00
1504;DHT22;743;47.076;15.494;2022-08-03T00:16:38;23.30;1.00
1504;DHT22;743;47.076;15.494;2022-08-03T00:19:05;23.30;1.00
1504;DHT22;743;47.076;15.494;2022-08-03T00:21:33;23.40;1.00
1504;DHT22;743;47.076;15.494;2022-08-03T00:24:00;23.30;1.00
1504;DHT22;743;47.076;15.494;2022-08-03T00:26:29;22.90;1.00
1504;DHT22;743;47.076;15.494;2022-08-03T00:28:58;22.70;1.00
1504;DHT22;743;47.076;15.494;2022-08-03T00:31:25;22.80;1.00
1504;DHT22;743;47.076;15.494;2022-08-03T00:33:55;22.90;1.00
1504;DHT22;743;47.076;15.494;2022-08-03T00:41:18;23.20;1.00
1504;DHT22;743;47.076;15.494;2022-08-03T00:43:46;23.10;1.00
1504;DHT22;743;47.076;15.494;2022-08-03T00:46:14;23.00;1.00
1504;DHT22;743;47.076;15.494;2022-08-03T00:48:41;23.00;1.00
1504;DHT22;743;47.076;15.494;2022-08-03T00:51:11;22.90;1.00
1504;DHT22;743;47.076;15.494;2022-08-03T00:56:06;23.00;1.00
1504;DHT22;743;47.076;15.494;2022-08-03T00:58:34;23.00;1.00
1504;DHT22;743;47.076;15.494;2022-08-03T01:01:02;23.00;1.00
1504;DHT22;743;47.076;15.494;2022-08-03T01:03:31;23.00;1.00
1504;DHT22;743;47.076;15.494;2022-08-03T01:06:03;23.00;1.00
1504;DHT22;743;47.076;15.494;2022-08-03T01:08:40;23.20;1.00
1504;DHT22;743;47.076;15.494;2022-08-03T01:11:13;23.10;1.00
1504;DHT22;743;47.076;15.494;2022-08-03T01:13:49;23.10;1.00
1504;DHT22;743;47.076;15.494;2022-08-03T01:16:25;22.90;1.00
1504;DHT22;743;47.076;15.494;2022-08-03T01:18:59;22.70;1.00
1504;DHT22;743;47.076;15.494;2022-08-03T01:21:33;22.40;1.00
1504;DHT22;743;47.076;15.494;2022-08-03T01:24:19;22.40;1.00
1504;DHT22;743;47.076;15.494;2022-08-03T01:27:02;22.60;1.00
1504;DHT22;743;47.076;15.494;2022-08-03T01:29:55;22.60;1.00
1504;DHT22;743;47.076;15.494;2022-08-03T01:32:27;22.40;1.00
1504;DHT22;743;47.076;15.494;2022-08-03T01:35:01;22.50;1.00
1504;DHT22;743;47.076;15.494;2022-08-03T01:37:36;22.60;1.00
1504;DHT22;743;47.076;15.494;2022-08-03T01:40:08;22.60;1.00
1504;DHT22;743;47.076;15.494;2022-08-03T01:42:38;22.60;1.00
1504;DHT22;743;47.076;15.494;2022-08-03T01:45:11;22.60;1.00
1504;DHT22;743;47.076;15.494;2022-08-03T01:47:40;22.60;1.00
1504;DHT22;743;47.076;15.494;2022-08-03T01:50:14;22.60;1.00
1504;DHT22;743;47.076;15.494;2022-08-03T01:52:43;22.60;1.00
1504;DHT22;743;47.076;15.494;2022-08-03T01:55:13;22.50;1.00
1504;DHT22;743;47.076;15.494;2022-08-03T01:57:44;22.50;1.00
1504;DHT22;743;47.076;15.494;2022-08-03T02:00:16;22.60;1.00
1504;DHT22;743;47.076;15.494;2022-08-03T02:02:47;22.50;1.00
1504;DHT22;743;47.076;15.494;2022-08-03T02:05:16;21.90;1.00
1504;DHT22;743;47.076;15.494;2022-08-03T02:07:45;22.00;1.00
1504;DHT22;743;47.076;15.494;2022-08-03T02:10:15;22.30;1.00
1504;DHT22;743;47.076;15.494;2022-08-03T02:12:48;22.20;1.00
1504;DHT22;743;47.076;15.494;2022-08-03T02:15:18;22.20;1.00
1504;DHT22;743;47.076;15.494;2022-08-03T02:17:47;22.10;1.00
1504;DHT22;743;47.076;15.494;2022-08-03T02:20:16;22.10;1.00
1504;DHT22;743;47.076;15.494;2022-08-03T02:22:45;22.20;1.00
1504;DHT22;743;47.076;15.494;2022-08-03T02:25:14;22.20;1.00
1504;DHT22;743;47.076;15.494;2022-08-03T02:27:45;22.10;1.00
1504;DHT22;743;47.076;15.494;2022-08-03T02:30:14;22.10;1.00
1504;DHT22;743;47.076;15.494;2022-08-03T02:32:47;22.10;1.00
1504;DHT22;743;47.076;15.494;2022-08-03T02:35:19;22.20;1.00
1504;DHT22;743;47.076;15.494;2022-08-03T02:37:51;22.10;1.00
1504;DHT22;743;47.076;15.494;2022-08-03T02:40:22;22.20;1.00
1504;DHT22;743;47.076;15.494;2022-08-03T02:43:01;22.10;1.00
1504;DHT22;743;47.076;15.494;2022-08-03T02:45:31;22.00;1.00
1504;DHT22;743;47.076;15.494;2022-08-03T02:48:03;22.00;1.00
1504;DHT22;743;47.076;15.494;2022-08-03T02:50:32;22.00;1.00
1504;DHT22;743;47.076;15.494;2022-08-03T02:53:02;22.20;1.00
1504;DHT22;743;47.076;15.494;2022-08-03T02:55:31;22.10;1.00
1504;DHT22;743;47.076;15.494;2022-08-03T02:58:02;21.90;1.00
1504;DHT22;743;47.076;15.494;2022-08-03T03:00:31;22.10;1.00
1504;DHT22;743;47.076;15.494;2022-08-03T03:03:02;22.00;1.00
1504;DHT22;743;47.076;15.494;2022-08-03T03:05:32;22.00;1.00
1504;DHT22;743;47.076;15.494;2022-08-03T03:08:02;22.10;1.00
1504;DHT22;743;47.076;15.494;2022-08-03T03:10:30;22.10;1.00
1504;DHT22;743;47.076;15.494;2022-08-03T03:12:57;22.10;1.00
1504;DHT22;743;47.076;15.494;2022-08-03T03:15:28;22.40;1.00
1504;DHT22;743;47.076;15.494;2022-08-03T03:17:57;21.90;1.00
1504;DHT22;743;47.076;15.494;2022-08-03T03:20:29;22.00;1.00
1504;DHT22;743;47.076;15.494;2022-08-03T03:22:59;22.10;1.00
1504;DHT22;743;47.076;15.494;2022-08-03T03:25:31;22.10;1.00
1504;DHT22;743;47.076;15.494;2022-08-03T03:28:00;22.10;1.00
1504;DHT22;743;47.076;15.494;2022-08-03T03:30:28;22.10;1.00
1504;DHT22;743;47.076;15.494;2022-08-03T03:32:57;21.80;1.00
1504;DHT22;743;47.076;15.494;2022-08-03T03:35:28;21.80;1.00
1504;DHT22;743;47.076;15.494;2022-08-03T03:37:57;21.80;1.00
1504;DHT22;743;47.076;15.494;2022-08-03T03:40:24;21.80;1.00
1504;DHT22;743;47.076;15.494;2022-08-03T03:42:52;21.70;1.00
1504;DHT22;743;47.076;15.494;2022-08-03T03:45:20;21.60;1.00
1504;DHT22;743;47.076;15.494;2022-08-03T03:47:48;21.60;1.00
1504;DHT22;743;47.076;15.494;2022-08-03T03:50:17;21.70;1.00
1504;DHT22;743;47.076;15.494;2022-08-03T03:52:47;21.70;1.00
1504;DHT22;743;47.076;15.494;2022-08-03T03:55:15;21.80;1.00
1504;DHT22;743;47.076;15.494;2022-08-03T03:57:43;21.80;1.00
1504;DHT22;743;47.076;15.494;2022-08-03T04:00:14;21.90;1.00
1504;DHT22;743;47.076;15.494;2022-08-03T04:02:45;22.00;1.00
1504;DHT22;743;47.076;15.494;2022-08-03T04:05:14;21.80;1.00
1504;DHT22;743;47.076;15.494;2022-08-03T04:08:03;21.70;1.00
1504;DHT22;743;47.076;15.494;2022-08-03T04:10:55;21.80;1.00
1504;DHT22;743;47.076;15.494;2022-08-03T04:13:28;22.10;1.00
1504;DHT22;743;47.076;15.494;2022-08-03T04:15:58;22.10;1.00
1504;DHT22;743;47.076;15.494;2022-08-03T04:18:31;22.00;1.00
1504;DHT22;743;47.076;15.494;2022-08-03T04:21:03;21.90;1.00
1504;DHT22;743;47.076;15.494;2022-08-03T04:23:39;21.90;1.00
1504;DHT22;743;47.076;15.494;2022-08-03T04:26:11;22.00;1.00
1504;DHT22;743;47.076;15.494;2022-08-03T04:28:40;22.00;1.00
1504;DHT22;743;47.076;15.494;2022-08-03T04:31:09;22.00;1.00
1504;DHT22;743;47.076;15.494;2022-08-03T04:33:38;22.00;1.00
1504;DHT22;743;47.076;15.494;2022-08-03T04:36:07;22.10;1.00
1504;DHT22;743;47.076;15.494;2022-08-03T04:38:40;22.10;1.00
1504;DHT22;743;47.076;15.494;2022-08-03T04:41:11;22.20;1.00
1504;DHT22;743;47.076;15.494;2022-08-03T04:43:39;22.20;1.00
1504;DHT22;743;47.076;15.494;2022-08-03T04:46:07;22.40;1.00
1504;DHT22;743;47.076;15.494;2022-08-03T04:48:35;22.70;1.00
1504;DHT22;743;47.076;15.494;2022-08-03T04:51:08;22.80;1.00
1504;DHT22;743;47.076;15.494;2022-08-03T04:53:39;23.10;1.00
1504;DHT22;743;47.076;15.494;2022-08-03T04:56:07;23.10;1.00
1504;DHT22;743;47.076;15.494;2022-08-03T04:58:35;23.00;1.00
1504;DHT22;743;47.076;15.494;2022-08-03T05:01:05;23.00;1.00
1504;DHT22;743;47.076;15.494;2022-08-03T05:06:00;23.10;1.00
1504;DHT22;743;47.076;15.494;2022-08-03T05:08:28;23.20;1.00
1504;DHT22;743;47.076;15.494;2022-08-03T05:11:02;23.20;1.00
1504;DHT22;743;47.076;15.494;2022-08-03T05:13:29;23.20;1.00
1504;DHT22;743;47.076;15.494;2022-08-03T05:15:59;23.20;1.00
1504;DHT22;743;47.076;15.494;2022-08-03T05:18:27;23.20;1.00
1504;DHT22;743;47.076;15.494;2022-08-03T05:20:54;23.40;1.00
1504;DHT22;743;47.076;15.494;2022-08-03T05:23:24;23.60;1.00
1504;DHT22;743;47.076;15.494;2022-08-03T05:25:55;23.70;1.00
1504;DHT22;743;47.076;15.494;2022-08-03T05:28:27;23.80;1.00
1504;DHT22;743;47.076;15.494;2022-08-03T05:30:55;23.90;1.00
1504;DHT22;743;47.076;15.494;2022-08-03T05:33:23;24.10;1.00
1504;DHT22;743;47.076;15.494;2022-08-03T05:35:51;24.20;1.00
1504;DHT22;743;47.076;15.494;2022-08-03T05:38:20;24.50;1.00
1504;DHT22;743;47.076;15.494;2022-08-03T05:40:49;24.30;1.00
1504;DHT22;743;47.076;15.494;2022-08-03T05:45:46;24.40;1.00
1504;DHT22;743;47.076;15.494;2022-08-03T05:48:13;24.40;1.00
1504;DHT22;743;47.076;15.494;2022-08-03T05:50:44;24.00;1.00
1504;DHT22;743;47.076;15.494;2022-08-03T05:53:12;24.70;1.00
1504;DHT22;743;47.076;15.494;2022-08-03T05:55:43;24.60;1.00
1504;DHT22;743;47.076;15.494;2022-08-03T05:58:11;24.70;1.00
1504;DHT22;743;47.076;15.494;2022-08-03T06:00:38;24.90;1.00
1504;DHT22;743;47.076;15.494;2022-08-03T06:03:07;25.40;1.00
1504;DHT22;743;47.076;15.494;2022-08-03T06:05:35;25.20;1.00
1504;DHT22;743;47.076;15.494;2022-08-03T06:08:03;25.30;1.00
1504;DHT22;743;47.076;15.494;2022-08-03T06:10:35;25.30;1.00
1504;DHT22;743;47.076;15.494;2022-08-03T06:13:03;25.50;1.00
1504;DHT22;743;47.076;15.494;2022-08-03T06:15:35;25.70;1.00
1504;DHT22;743;47.076;15.494;2022-08-03T06:18:04;25.80;1.00
1504;DHT22;743;47.076;15.494;2022-08-03T06:20:35;25.80;1.00
1504;DHT22;743;47.076;15.494;2022-08-03T06:23:11;25.80;1.00
1504;DHT22;743;47.076;15.494;2022-08-03T06:25:39;25.90;1.00
1504;DHT22;743;47.076;15.494;2022-08-03T06:28:07;25.90;1.00
1504;DHT22;743;47.076;15.494;2022-08-03T06:30:35;25.90;1.00
1504;DHT22;743;47.076;15.494;2022-08-03T06:33:05;26.00;1.00
1504;DHT22;743;47.076;15.494;2022-08-03T06:35:39;26.10;1.00
1504;DHT22;743;47.076;15.494;2022-08-03T06:38:07;26.30;1.00
1504;DHT22;743;47.076;15.494;2022-08-03T06:40:36;26.50;1.00
1504;DHT22;743;47.076;15.494;2022-08-03T06:43:07;26.50;1.00
1504;DHT22;743;47.076;15.494;2022-08-03T06:45:35;26.70;1.00
1504;DHT22;743;47.076;15.494;2022-08-03T06:48:04;26.80;1.00
1504;DHT22;743;47.076;15.494;2022-08-03T06:50:34;26.90;1.00
1504;DHT22;743;47.076;15.494;2022-08-03T06:53:02;27.00;1.00
1504;DHT22;743;47.076;15.494;2022-08-03T06:55:30;26.90;1.00
1504;DHT22;743;47.076;15.494;2022-08-03T06:57:59;26.90;1.00
1504;DHT22;743;47.076;15.494;2022-08-03T07:00:27;27.40;1.00
1504;DHT22;743;47.076;15.494;2022-08-03T07:02:55;27.00;1.00
1504;DHT22;743;47.076;15.494;2022-08-03T07:05:23;27.20;99.90
1504;DHT22;743;47.076;15.494;2022-08-03T07:07:55;27.30;99.90
1504;DHT22;743;47.076;15.494;2022-08-03T07:10:24;27.40;99.90
1504;DHT22;743;47.076;15.494;2022-08-03T07:12:53;27.60;99.90
1504;DHT22;743;47.076;15.494;2022-08-03T07:15:20;27.50;99.90
1504;DHT22;743;47.076;15.494;2022-08-03T07:17:48;27.60;99.90
1504;DHT22;743;47.076;15.494;2022-08-03T07:20:17;27.70;99.90
1504;DHT22;743;47.076;15.494;2022-08-03T07:22:47;27.90;99.90
1504;DHT22;743;47.076;15.494;2022-08-03T07:25:16;27.90;99.90
1504;DHT22;743;47.076;15.494;2022-08-03T07:27:43;27.90;99.90
1504;DHT22;743;47.076;15.494;2022-08-03T07:30:12;27.90;99.90
1504;DHT22;743;47.076;15.494;2022-08-03T07:32:40;27.90;99.90
1504;DHT22;743;47.076;15.494;2022-08-03T07:35:09;28.00;99.90
1504;DHT22;743;47.076;15.494;2022-08-03T07:37:38;28.10;99.90
1504;DHT22;743;47.076;15.494;2022-08-03T07:40:06;28.30;99.90
1504;DHT22;743;47.076;15.494;2022-08-03T07:42:35;28.20;99.90
1504;DHT22;743;47.076;15.494;2022-08-03T07:45:03;28.30;99.90
1504;DHT22;743;47.076;15.494;2022-08-03T07:47:30;28.40;99.90
1504;DHT22;743;47.076;15.494;2022-08-03T07:49:59;28.40;99.90
1504;DHT22;743;47.076;15.494;2022-08-03T07:52:28;28.40;99.90
1504;DHT22;743;47.076;15.494;2022-08-03T07:55:13;28.50;99.90
1504;DHT22;743;47.076;15.494;2022-08-03T07:57:42;28.60;99.90
1504;DHT22;743;47.076;15.494;2022-08-03T08:00:13;28.50;1.00
1504;DHT22;743;47.076;15.494;2022-08-03T08:02:42;28.50;99.90
1504;DHT22;743;47.076;15.494;2022-08-03T08:05:10;28.60;99.90
1504;DHT22;743;47.076;15.494;2022-08-03T08:07:39;28.90;1.00
1504;DHT22;743;47.076;15.494;2022-08-03T08:10:08;28.90;99.90
1504;DHT22;743;47.076;15.494;2022-08-03T08:12:36;28.90;99.90
1504;DHT22;743;47.076;15.494;2022-08-03T08:15:07;29.10;99.90
1504;DHT22;743;47.076;15.494;2022-08-03T08:17:43;28.80;99.90
1504;DHT22;743;47.076;15.494;2022-08-03T08:20:14;28.80;99.90
1504;DHT22;743;47.076;15.494;2022-08-03T08:22:43;29.00;99.90
1504;DHT22;743;47.076;15.494;2022-08-03T08:25:12;29.10;99.90
1504;DHT22;743;47.076;15.494;2022-08-03T08:27:41;29.00;99.90
1504;DHT22;743;47.076;15.494;2022-08-03T08:30:13;29.10;99.90
1504;DHT22;743;47.076;15.494;2022-08-03T08:32:41;29.10;99.90
1504;DHT22;743;47.076;15.494;2022-08-03T08:35:10;29.20;99.90
1504;DHT22;743;47.076;15.494;2022-08-03T08:37:39;29.40;99.90
1504;DHT22;743;47.076;15.494;2022-08-03T08:40:08;29.50;99.90
1504;DHT22;743;47.076;15.494;2022-08-03T08:42:39;29.10;1.00
1504;DHT22;743;47.076;15.494;2022-08-03T08:45:08;29.30;99.90
1504;DHT22;743;47.076;15.494;2022-08-03T08:47:39;29.40;99.90
1504;DHT22;743;47.076;15.494;2022-08-03T08:50:08;29.50;99.90
1504;DHT22;743;47.076;15.494;2022-08-03T08:52:36;29.40;99.90
1504;DHT22;743;47.076;15.494;2022-08-03T08:55:08;29.60;99.90
1504;DHT22;743;47.076;15.494;2022-08-03T08:57:41;29.70;99.90
1504;DHT22;743;47.076;15.494;2022-08-03T09:00:10;29.80;99.90
1504;DHT22;743;47.076;15.494;2022-08-03T09:02:42;29.80;1.00
1504;DHT22;743;47.076;15.494;2022-08-03T09:05:10;29.90;99.90
1504;DHT22;743;47.076;15.494;2022-08-03T09:07:41;29.70;99.90
1504;DHT22;743;47.076;15.494;2022-08-03T09:10:11;29.80;99.90
1504;DHT22;743;47.076;15.494;2022-08-03T09:12:40;29.80;99.90
1504;DHT22;743;47.076;15.494;2022-08-03T09:15:27;29.90;99.90
1504;DHT22;743;47.076;15.494;2022-08-03T09:17:59;30.00;99.90
1504;DHT22;743;47.076;15.494;2022-08-03T09:20:30;30.30;99.90
1504;DHT22;743;47.076;15.494;2022-08-03T09:22:59;30.30;99.90
1504;DHT22;743;47.076;15.494;2022-08-03T09:25:31;30.40;99.90
1504;DHT22;743;47.076;15.494;2022-08-03T09:28:08;30.60;99.90
1504;DHT22;743;47.076;15.494;2022-08-03T09:30:36;30.60;99.90
1504;DHT22;743;47.076;15.494;2022-08-03T09:33:07;30.40;99.90
1504;DHT22;743;47.076;15.494;2022-08-03T09:35:40;30.30;99.90
1504;DHT22;743;47.076;15.494;2022-08-03T09:38:10;30.40;99.90
1504;DHT22;743;47.076;15.494;2022-08-03T09:40:39;30.30;99.90
1504;DHT22;743;47.076;15.494;2022-08-03T09:43:20;30.20;1.00
1504;DHT22;743;47.076;15.494;2022-08-03T09:45:50;30.70;99.90
1504;DHT22;743;47.076;15.494;2022-08-03T09:48:34;30.80;99.90
1504;DHT22;743;47.076;15.494;2022-08-03T09:51:02;30.90;1.00
1504;DHT22;743;47.076;15.494;2022-08-03T09:53:30;30.90;99.90
1504;DHT22;743;47.076;15.494;2022-08-03T09:55:58;31.00;99.90
1504;DHT22;743;47.076;15.494;2022-08-03T09:58:28;31.20;99.90
1504;DHT22;743;47.076;15.494;2022-08-03T10:00:57;31.30;99.90
1504;DHT22;743;47.076;15.494;2022-08-03T10:03:28;31.20;99.90
1504;DHT22;743;47.076;15.494;2022-08-03T10:05:58;31.20;99.90
1504;DHT22;743;47.076;15.494;2022-08-03T10:08:40;31.30;1.00
1504;DHT22;743;47.076;15.494;2022-08-03T10:11:08;31.30;99.90
1504;DHT22;743;47.076;15.494;2022-08-03T10:13:40;31.40;99.90
1504;DHT22;743;47.076;15.494;2022-08-03T10:16:07;31.40;99.90
1504;DHT22;743;47.076;15.494;2022-08-03T10:18:36;31.50;99.90
1504;DHT22;743;47.076;15.494;2022-08-03T10:21:07;31.40;99.90
1504;DHT22;743;47.076;15.494;2022-08-03T10:23:37;31.50;99.90
1504;DHT22;743;47.076;15.494;2022-08-03T10:26:12;31.60;99.90
1504;DHT22;743;47.076;15.494;2022-08-03T10:28:48;31.40;99.90
1504;DHT22;743;47.076;15.494;2022-08-03T10:31:17;31.30;99.90
1504;DHT22;743;47.076;15.494;2022-08-03T10:33:49;31.10;99.90
1504;DHT22;743;47.076;15.494;2022-08-03T10:36:18;30.90;99.90
1504;DHT22;743;47.076;15.494;2022-08-03T10:38:48;31.00;99.90
1504;DHT22;743;47.076;15.494;2022-08-03T10:41:19;31.20;99.90
1504;DHT22;743;47.076;15.494;2022-08-03T10:43:50;31.20;99.90
1504;DHT22;743;47.076;15.494;2022-08-03T10:46:20;31.20;99.90
1504;DHT22;743;47.076;15.494;2022-08-03T10:48:49;31.70;99.90
1504;DHT22;743;47.076;15.494;2022-08-03T10:51:21;32.00;99.90
1504;DHT22;743;47.076;15.494;2022-08-03T10:53:49;32.10;99.90
1504;DHT22;743;47.076;15.494;2022-08-03T10:56:43;31.80;99.90
1504;DHT22;743;47.076;15.494;2022-08-03T10:59:57;31.60;99.90
1504;DHT22;743;47.076;15.494;2022-08-03T11:03:03;31.80;99.90
1504;DHT22;743;47.076;15.494;2022-08-03T11:05:36;31.80;99.90
1504;DHT22;743;47.076;15.494;2022-08-03T11:08:28;31.70;99.90
1504;DHT22;743;47.076;15.494;2022-08-03T11:10:58;31.70;99.90
1504;DHT22;743;47.076;15.494;2022-08-03T11:13:27;31.60;99.90
1504;DHT22;743;47.076;15.494;2022-08-03T11:15:59;31.80;99.90
1504;DHT22;743;47.076;15.494;2022-08-03T11:18:27;31.90;99.90
1504;DHT22;743;47.076;15.494;2022-08-03T11:20:55;32.10;99.90
1504;DHT22;743;47.076;15.494;2022-08-03T11:23:43;32.00;99.90
1504;DHT22;743;47.076;15.494;2022-08-03T11:26:16;31.70;99.90
1504;DHT22;743;47.076;15.494;2022-08-03T11:28:45;31.40;99.90
1504;DHT22;743;47.076;15.494;2022-08-03T11:34:24;31.50;99.90
1504;DHT22;743;47.076;15.494;2022-08-03T11:37:17;31.60;1.00
1504;DHT22;743;47.076;15.494;2022-08-03T11:39:53;31.70;99.90
1504;DHT22;743;47.076;15.494;2022-08-03T11:42:39;32.20;1.00
1504;DHT22;743;47.076;15.494;2022-08-03T11:45:09;32.20;99.90
1504;DHT22;743;47.076;15.494;2022-08-03T11:47:38;32.30;99.90
1504;DHT22;743;47.076;15.494;2022-08-03T11:50:07;32.60;99.90
1504;DHT22;743;47.076;15.494;2022-08-03T11:52:39;32.80;99.90
1504;DHT22;743;47.076;15.494;2022-08-03T11:55:28;32.80;99.90
1504;DHT22;743;47.076;15.494;2022-08-03T11:58:00;32.80;99.90
1504;DHT22;743;47.076;15.494;2022-08-03T12:00:30;32.90;99.90
1504;DHT22;743;47.076;15.494;2022-08-03T12:03:00;33.50;1.00
1504;DHT22;743;47.076;15.494;2022-08-03T12:05:39;33.30;99.90
1504;DHT22;743;47.076;15.494;2022-08-03T12:08:07;33.40;99.90
1504;DHT22;743;47.076;15.494;2022-08-03T12:10:46;33.30;99.90
1504;DHT22;743;47.076;15.494;2022-08-03T12:13:14;33.20;99.90
1504;DHT22;743;47.076;15.494;2022-08-03T12:15:42;33.00;99.90
1504;DHT22;743;47.076;15.494;2022-08-03T12:18:14;33.00;99.90
1504;DHT22;743;47.076;15.494;2022-08-03T12:20:43;33.00;99.90
1504;DHT22;743;47.076;15.494;2022-08-03T12:23:11;33.30;99.90
1504;DHT22;743;47.076;15.494;2022-08-03T12:25:43;33.30;99.90
1504;DHT22;743;47.076;15.494;2022-08-03T12:28:16;33.20;99.90
1504;DHT22;743;47.076;15.494;2022-08-03T12:30:49;33.40;99.90
1504;DHT22;743;47.076;15.494;2022-08-03T12:33:21;33.40;99.90
1504;DHT22;743;47.076;15.494;2022-08-03T12:36:01;33.60;99.90
1504;DHT22;743;47.076;15.494;2022-08-03T12:38:31;33.40;99.90
1504;DHT22;743;47.076;15.494;2022-08-03T12:41:04;33.50;99.90
1504;DHT22;743;47.076;15.494;2022-08-03T12:43:33;33.60;99.90
1504;DHT22;743;47.076;15.494;2022-08-03T12:46:08;34.00;99.90
1504;DHT22;743;47.076;15.494;2022-08-03T12:48:35;34.30;99.90
1504;DHT22;743;47.076;15.494;2022-08-03T12:51:09;34.50;99.90
1504;DHT22;743;47.076;15.494;2022-08-03T12:53:37;34.10;99.90
1504;DHT22;743;47.076;15.494;2022-08-03T12:56:08;34.00;99.90
1504;DHT22;743;47.076;15.494;2022-08-03T12:58:35;34.10;99.90
1504;DHT22;743;47.076;15.494;2022-08-03T13:01:04;34.20;99.90
1504;DHT22;743;47.076;15.494;2022-08-03T13:03:40;34.80;99.90
1504;DHT22;743;47.076;15.494;2022-08-03T13:06:11;35.10;99.90
1504;DHT22;743;47.076;15.494;2022-08-03T13:08:40;35.30;99.90
1504;DHT22;743;47.076;15.494;2022-08-03T13:11:23;35.30;99.90
1504;DHT22;743;47.076;15.494;2022-08-03T13:13:51;35.30;99.90
1504;DHT22;743;47.076;15.494;2022-08-03T13:16:18;35.50;99.90
1504;DHT22;743;47.076;15.494;2022-08-03T13:18:46;35.60;99.90
1504;DHT22;743;47.076;15.494;2022-08-03T13:21:15;35.40;99.90
1504;DHT22;743;47.076;15.494;2022-08-03T13:23:44;35.70;1.00
1504;DHT22;743;47.076;15.494;2022-08-03T13:26:11;35.60;1.00
1504;DHT22;743;47.076;15.494;2022-08-03T13:28:40;35.60;99.90
1504;DHT22;743;47.076;15.494;2022-08-03T13:31:07;35.70;99.90
1504;DHT22;743;47.076;15.494;2022-08-03T13:33:34;35.80;99.90
1504;DHT22;743;47.076;15.494;2022-08-03T13:36:02;35.90;99.90
1504;DHT22;743;47.076;15.494;2022-08-03T13:38:30;36.00;99.90
1504;DHT22;743;47.076;15.494;2022-08-03T13:40:58;35.90;99.90
1504;DHT22;743;47.076;15.494;2022-08-03T13:43:27;36.50;1.00
1504;DHT22;743;47.076;15.494;2022-08-03T13:45:56;36.20;1.00
1504;DHT22;743;47.076;15.494;2022-08-03T13:48:25;36.30;99.90
1504;DHT22;743;47.076;15.494;2022-08-03T13:50:52;36.20;99.90
1504;DHT22;743;47.076;15.494;2022-08-03T13:53:20;36.20;99.90
1504;DHT22;743;47.076;15.494;2022-08-03T13:55:47;36.30;99.90
1504;DHT22;743;47.076;15.494;2022-08-03T13:58:14;36.20;99.90
1504;DHT22;743;47.076;15.494;2022-08-03T14:00:42;36.50;99.90
1504;DHT22;743;47.076;15.494;2022-08-03T14:03:11;36.60;99.90
1504;DHT22;743;47.076;15.494;2022-08-03T14:05:40;36.30;99.90
1504;DHT22;743;47.076;15.494;2022-08-03T14:08:07;36.30;99.90
1504;DHT22;743;47.076;15.494;2022-08-03T14:10:36;36.20;99.90
1504;DHT22;743;47.076;15.494;2022-08-03T14:13:04;36.00;99.90
1504;DHT22;743;47.076;15.494;2022-08-03T14:15:32;36.20;99.90
1504;DHT22;743;47.076;15.494;2022-08-03T14:17:59;36.10;99.90
1504;DHT22;743;47.076;15.494;2022-08-03T14:20:28;35.90;99.90
1504;DHT22;743;47.076;15.494;2022-08-03T14:22:56;36.10;99.90
1504;DHT22;743;47.076;15.494;2022-08-03T14:25:23;36.30;99.90
1504;DHT22;743;47.076;15.494;2022-08-03T14:27:50;36.30;99.90
1504;DHT22;743;47.076;15.494;2022-08-03T14:30:17;36.50;99.90
1504;DHT22;743;47.076;15.494;2022-08-03T14:32:45;36.60;99.90
1504;DHT22;743;47.076;15.494;2022-08-03T14:35:12;36.90;99.90
1504;DHT22;743;47.076;15.494;2022-08-03T14:37:41;36.80;99.90
1504;DHT22;743;47.076;15.494;2022-08-03T14:40:08;37.00;99.90
1504;DHT22;743;47.076;15.494;2022-08-03T14:42:36;36.80;99.90
1504;DHT22;743;47.076;15.494;2022-08-03T14:45:04;37.10;99.90
1504;DHT22;743;47.076;15.494;2022-08-03T14:47:31;37.40;99.90
1504;DHT22;743;47.076;15.494;2022-08-03T14:50:00;38.00;99.90
1504;DHT22;743;47.076;15.494;2022-08-03T14:52:29;38.10;99.90
1504;DHT22;743;47.076;15.494;2022-08-03T14:54:59;38.10;99.90
1504;DHT22;743;47.076;15.494;2022-08-03T14:57:27;38.20;99.90
1504;DHT22;743;47.076;15.494;2022-08-03T14:59:54;38.00;99.90
1504;DHT22;743;47.076;15.494;2022-08-03T15:02:21;37.90;99.90
1504;DHT22;743;47.076;15.494;2022-08-03T15:04:50;37.90;99.90
1504;DHT22;743;47.076;15.494;2022-08-03T15:07:17;38.00;99.90
1504;DHT22;743;47.076;15.494;2022-08-03T15:09:45;38.30;99.90
1504;DHT22;743;47.076;15.494;2022-08-03T15:14:42;38.70;99.90
1504;DHT22;743;47.076;15.494;2022-08-03T15:17:12;38.50;99.90
1504;DHT22;743;47.076;15.494;2022-08-03T15:19:39;38.70;99.90
1504;DHT22;743;47.076;15.494;2022-08-03T15:22:07;38.80;99.90
1504;DHT22;743;47.076;15.494;2022-08-03T15:24:34;38.80;99.90
1504;DHT22;743;47.076;15.494;2022-08-03T15:27:01;39.00;99.90
1504;DHT22;743;47.076;15.494;2022-08-03T15:29:30;38.60;99.90
1504;DHT22;743;47.076;15.494;2022-08-03T15:31:57;38.70;99.90
1504;DHT22;743;47.076;15.494;2022-08-03T15:34:26;39.30;99.90
1504;DHT22;743;47.076;15.494;2022-08-03T15:36:53;39.60;99.90
1504;DHT22;743;47.076;15.494;2022-08-03T15:39:20;39.80;99.90
1504;DHT22;743;47.076;15.494;2022-08-03T15:41:47;39.80;99.90
1504;DHT22;743;47.076;15.494;2022-08-03T15:44:17;39.50;99.90
1504;DHT22;743;47.076;15.494;2022-08-03T15:46:46;39.20;99.90
1504;DHT22;743;47.076;15.494;2022-08-03T15:49:14;39.60;99.90
1504;DHT22;743;47.076;15.494;2022-08-03T15:51:41;39.80;99.90
1504;DHT22;743;47.076;15.494;2022-08-03T15:54:08;40.20;99.90
1504;DHT22;743;47.076;15.494;2022-08-03T15:56:35;40.10;99.90
1504;DHT22;743;47.076;15.494;2022-08-03T15:59:04;39.90;99.90
1504;DHT22;743;47.076;15.494;2022-08-03T16:01:31;40.10;99.90
1504;DHT22;743;47.076;15.494;2022-08-03T16:06:27;40.40;99.90
1504;DHT22;743;47.076;15.494;2022-08-03T16:08:54;40.40;99.90
1504;DHT22;743;47.076;15.494;2022-08-03T16:13:51;40.20;1.00
1504;DHT22;743;47.076;15.494;2022-08-03T16:16:18;40.20;99.90
1504;DHT22;743;47.076;15.494;2022-08-03T16:18:48;40.40;99.90
1504;DHT22;743;47.076;15.494;2022-08-03T16:21:17;39.30;99.90
1504;DHT22;743;47.076;15.494;2022-08-03T16:23:44;39.20;99.90
1504;DHT22;743;47.076;15.494;2022-08-03T16:26:14;38.60;99.90
1504;DHT22;743;47.076;15.494;2022-08-03T16:28:41;38.20;99.90
1504;DHT22;743;47.076;15.494;2022-08-03T16:31:08;37.70;99.90
1504;DHT22;743;47.076;15.494;2022-08-03T16:33:35;37.20;99.90
1504;DHT22;743;47.076;15.494;2022-08-03T16:36:05;36.90;99.90
1504;DHT22;743;47.076;15.494;2022-08-03T16:38:34;36.30;99.90
1504;DHT22;743;47.076;15.494;2022-08-03T16:41:01;35.60;99.90
1504;DHT22;743;47.076;15.494;2022-08-03T16:43:29;35.00;99.90
1504;DHT22;743;47.076;15.494;2022-08-03T16:45:59;34.80;99.90
1504;DHT22;743;47.076;15.494;2022-08-03T16:48:27;34.50;99.90
1504;DHT22;743;47.076;15.494;2022-08-03T16:50:54;34.10;99.90
1504;DHT22;743;47.076;15.494;2022-08-03T16:53:21;33.90;99.90
1504;DHT22;743;47.076;15.494;2022-08-03T16:55:53;33.40;1.00
1504;DHT22;743;47.076;15.494;2022-08-03T16:58:21;33.40;99.90
1504;DHT22;743;47.076;15.494;2022-08-03T17:00:49;33.40;1.00